Black Brook, Wisconsin
Current Conditions -  °F | °C
As of 10:55 PM on Thursday 30 Oct 2014 (Local Time) from KRNH Reporting Station
Clear Clear  
Wind Chill: 18°   Ceiling: Unl
Heat Index: 32°   Visibility: 10mi
Dew Point: 12°   Wind: 26mph
Humidity: 44%   Direction: 340°NNW
Pressure: 30.3"   Gusts: 31mph
Location:  45.2417°N, 92.2543°W
Report Text: KRNH 310355Z AUTO 34023G27KT 10SM CLR 00/M11 A3030 RMK AO2 T00001109
Loading
Personal Weather Stations






























Interactive Weather Map New forecast layout! Learn more

10-Day Weather Forecast

Advertisements
Track Severe Weather on mobile